AAL474 KPHX-KDFW
Flight info
| Callsign | AAL474 |
|---|---|
| Flight time | 1h 54m |
| Altitude | 35000 |
| Route | BROAK1 MAXXO TXO TURKI JOVEM6 |
| Aircraft | A321/M-SDE3FGHIRWY/LB1 |
Departure
| Time | 2026-05-07 02:10 |
|---|---|
| Airport | Phoenix Sky Harbor International Airport (KPHX) |
Arrival
| Time | 2026-05-07 04:05 |
|---|---|
| Airport | Dallas Fort Worth International Airport (KDFW) |
| Time | Latitude | Longitude | Altitude | Speed | Heading |
|---|---|---|---|---|---|
| 2026-05-07 01:46 | 33.43758 | -111.99990 | 1124 ft | 0 kts | 90° |
| 2026-05-07 01:58 | 33.43758 | -112.00008 | 1114 ft | 4 kts | 72° |
| 2026-05-07 01:58 | 33.43745 | -112.00027 | 1117 ft | 4 kts | 12° |
| 2026-05-07 01:58 | 33.43726 | -112.00030 | 1117 ft | 0 kts | 0° |
| 2026-05-07 02:02 | 33.43727 | -112.00030 | 1124 ft | 0 kts | 0° |
| 2026-05-07 02:02 | 33.43735 | -112.00030 | 1124 ft | 2 kts | 0° |
| 2026-05-07 02:02 | 33.43757 | -112.00030 | 1119 ft | 4 kts | 0° |
| 2026-05-07 02:03 | 33.43780 | -112.00030 | 1119 ft | 6 kts | 0° |
| 2026-05-07 02:03 | 33.43829 | -112.00029 | 1120 ft | 8 kts | 0° |
| 2026-05-07 02:03 | 33.43885 | -112.00024 | 1121 ft | 8 kts | 28° |
| 2026-05-07 02:03 | 33.43904 | -111.99961 | 1124 ft | 9 kts | 89° |
| 2026-05-07 02:04 | 33.43904 | -111.99875 | 1124 ft | 11 kts | 90° |
| 2026-05-07 02:04 | 33.43904 | -111.99772 | 1124 ft | 13 kts | 90° |
| 2026-05-07 02:04 | 33.43904 | -111.99653 | 1124 ft | 15 kts | 90° |
| 2026-05-07 02:04 | 33.43904 | -111.99520 | 1124 ft | 17 kts | 90° |
| 2026-05-07 02:05 | 33.43904 | -111.99374 | 1124 ft | 18 kts | 90° |
| 2026-05-07 02:05 | 33.43902 | -111.99249 | 1124 ft | 9 kts | 109° |
| 2026-05-07 02:05 | 33.43844 | -111.99225 | 1121 ft | 10 kts | 177° |
| 2026-05-07 02:05 | 33.43773 | -111.99220 | 1119 ft | 11 kts | 177° |
| 2026-05-07 02:06 | 33.43694 | -111.99226 | 1119 ft | 12 kts | 181° |
| 2026-05-07 02:06 | 33.43608 | -111.99227 | 1120 ft | 13 kts | 180° |
| 2026-05-07 02:06 | 33.43515 | -111.99226 | 1120 ft | 14 kts | 179° |
| 2026-05-07 02:06 | 33.43433 | -111.99242 | 1117 ft | 12 kts | 204° |
| 2026-05-07 02:07 | 33.43350 | -111.99247 | 1120 ft | 13 kts | 179° |
| 2026-05-07 02:07 | 33.43199 | -111.99274 | 1118 ft | 0 kts | 223° |
| 2026-05-07 02:08 | 33.43193 | -111.99279 | 1114 ft | 2 kts | 223° |
| 2026-05-07 02:09 | 33.43176 | -111.99299 | 1122 ft | 5 kts | 223° |
| 2026-05-07 02:09 | 33.43139 | -111.99333 | 1115 ft | 8 kts | 208° |
| 2026-05-07 02:09 | 33.43103 | -111.99379 | 1122 ft | 8 kts | 262° |
| 2026-05-07 02:09 | 33.43103 | -111.99473 | 1123 ft | 27 kts | 270° |
| 2026-05-07 02:10 | 33.43104 | -112.00055 | 1125 ft | 109 kts | 270° |
| 2026-05-07 02:10 | 33.43102 | -112.01236 | 1146 ft | 171 kts | 269° |
| 2026-05-07 02:10 | 33.43093 | -112.02721 | 1779 ft | 181 kts | 267° |
| 2026-05-07 02:10 | 33.43035 | -112.04213 | 2662 ft | 178 kts | 266° |
| 2026-05-07 02:11 | 33.42957 | -112.05662 | 3260 ft | 177 kts | 266° |
| 2026-05-07 02:11 | 33.42873 | -112.07215 | 3430 ft | 197 kts | 265° |
| 2026-05-07 02:11 | 33.42471 | -112.08855 | 3552 ft | 215 kts | 249° |
| 2026-05-07 02:11 | 33.41909 | -112.10567 | 3705 ft | 230 kts | 250° |
| 2026-05-07 02:12 | 33.41311 | -112.12451 | 3856 ft | 254 kts | 250° |
| 2026-05-07 02:12 | 33.40676 | -112.14474 | 4410 ft | 263 kts | 251° |
| 2026-05-07 02:12 | 33.40001 | -112.16530 | 5115 ft | 269 kts | 244° |
| 2026-05-07 02:12 | 33.38737 | -112.18196 | 5725 ft | 280 kts | 210° |
| 2026-05-07 02:13 | 33.36849 | -112.18796 | 6340 ft | 288 kts | 178° |
| 2026-05-07 02:13 | 33.34864 | -112.18410 | 6996 ft | 291 kts | 162° |
| 2026-05-07 02:13 | 33.32950 | -112.17610 | 7718 ft | 293 kts | 156° |
| 2026-05-07 02:13 | 33.31055 | -112.16696 | 8454 ft | 294 kts | 154° |
| 2026-05-07 02:14 | 33.29272 | -112.15512 | 9166 ft | 293 kts | 140° |
| 2026-05-07 02:14 | 33.27733 | -112.13882 | 9913 ft | 291 kts | 129° |
| 2026-05-07 02:14 | 33.26357 | -112.12096 | 10543 ft | 295 kts | 126° |
| 2026-05-07 02:14 | 33.25215 | -112.09976 | 10696 ft | 313 kts | 111° |
| 2026-05-07 02:15 | 33.24583 | -112.07420 | 10833 ft | 331 kts | 95° |
| 2026-05-07 02:15 | 33.24609 | -112.04616 | 10965 ft | 347 kts | 80° |
| 2026-05-07 02:15 | 33.24963 | -112.01718 | 11409 ft | 356 kts | 80° |
| 2026-05-07 02:15 | 33.25319 | -111.98772 | 12017 ft | 360 kts | 81° |
| 2026-05-07 02:16 | 33.25673 | -111.95793 | 12666 ft | 364 kts | 80° |
| 2026-05-07 02:16 | 33.26260 | -111.92853 | 13293 ft | 366 kts | 69° |
| 2026-05-07 02:16 | 33.27333 | -111.90090 | 13910 ft | 369 kts | 62° |
| 2026-05-07 02:16 | 33.28533 | -111.87360 | 14479 ft | 372 kts | 62° |
| 2026-05-07 02:17 | 33.29744 | -111.84609 | 15052 ft | 376 kts | 62° |
| 2026-05-07 02:17 | 33.30966 | -111.81828 | 15593 ft | 380 kts | 62° |
| 2026-05-07 02:17 | 33.32180 | -111.79050 | 16153 ft | 384 kts | 62° |
| 2026-05-07 02:17 | 33.33421 | -111.76203 | 16706 ft | 388 kts | 62° |
| 2026-05-07 02:18 | 33.34670 | -111.73329 | 17275 ft | 392 kts | 62° |
| 2026-05-07 02:18 | 33.35933 | -111.70426 | 17831 ft | 396 kts | 62° |
| 2026-05-07 02:18 | 33.37210 | -111.67495 | 18366 ft | 399 kts | 62° |
| 2026-05-07 02:18 | 33.38502 | -111.64537 | 18847 ft | 402 kts | 62° |
| 2026-05-07 02:19 | 33.39800 | -111.61561 | 19347 ft | 404 kts | 62° |
| 2026-05-07 02:19 | 33.41100 | -111.58570 | 19838 ft | 406 kts | 62° |
| 2026-05-07 02:19 | 33.42401 | -111.55557 | 20311 ft | 408 kts | 63° |
| 2026-05-07 02:19 | 33.43483 | -111.52406 | 20774 ft | 411 kts | 69° |
| 2026-05-07 02:20 | 33.44492 | -111.49195 | 21242 ft | 413 kts | 69° |
| 2026-05-07 02:20 | 33.45522 | -111.45924 | 21701 ft | 415 kts | 69° |
| 2026-05-07 02:20 | 33.46531 | -111.42725 | 22130 ft | 417 kts | 69° |
| 2026-05-07 02:20 | 33.47562 | -111.39464 | 22568 ft | 420 kts | 69° |
| 2026-05-07 02:21 | 33.48598 | -111.36184 | 22985 ft | 422 kts | 69° |
| 2026-05-07 02:21 | 33.49639 | -111.32884 | 23410 ft | 424 kts | 69° |
| 2026-05-07 02:21 | 33.50688 | -111.29567 | 23775 ft | 427 kts | 69° |
| 2026-05-07 02:21 | 33.51753 | -111.26181 | 24126 ft | 430 kts | 69° |
| 2026-05-07 02:22 | 33.52794 | -111.22858 | 24460 ft | 433 kts | 69° |
| 2026-05-07 02:22 | 33.53846 | -111.19416 | 24798 ft | 436 kts | 70° |
| 2026-05-07 02:22 | 33.54837 | -111.15975 | 25128 ft | 438 kts | 70° |
| 2026-05-07 02:22 | 33.55799 | -111.12498 | 25458 ft | 441 kts | 71° |
| 2026-05-07 02:23 | 33.56752 | -111.08995 | 25774 ft | 443 kts | 71° |
| 2026-05-07 02:23 | 33.57712 | -111.05469 | 26076 ft | 446 kts | 71° |
| 2026-05-07 02:23 | 33.58686 | -111.01924 | 26382 ft | 449 kts | 71° |
| 2026-05-07 02:23 | 33.59674 | -110.98361 | 26691 ft | 451 kts | 71° |
| 2026-05-07 02:24 | 33.60674 | -110.94779 | 26993 ft | 454 kts | 71° |
| 2026-05-07 02:24 | 33.61683 | -110.91178 | 27304 ft | 457 kts | 71° |
| 2026-05-07 02:24 | 33.62697 | -110.87553 | 27616 ft | 460 kts | 71° |
| 2026-05-07 02:24 | 33.63717 | -110.83904 | 27927 ft | 462 kts | 71° |
| 2026-05-07 02:25 | 33.64733 | -110.80258 | 28365 ft | 461 kts | 71° |
| 2026-05-07 02:25 | 33.65742 | -110.76612 | 28805 ft | 460 kts | 71° |
| 2026-05-07 02:25 | 33.66747 | -110.72968 | 29236 ft | 459 kts | 71° |
| 2026-05-07 02:25 | 33.67750 | -110.69330 | 29656 ft | 459 kts | 71° |
| 2026-05-07 02:26 | 33.68752 | -110.65694 | 30073 ft | 458 kts | 71° |
| 2026-05-07 02:26 | 33.69754 | -110.62058 | 30389 ft | 459 kts | 71° |
| 2026-05-07 02:26 | 33.70759 | -110.58414 | 30670 ft | 461 kts | 71° |
| 2026-05-07 02:26 | 33.71768 | -110.54752 | 30916 ft | 463 kts | 71° |
| 2026-05-07 02:27 | 33.72782 | -110.51065 | 31145 ft | 466 kts | 71° |
| 2026-05-07 02:27 | 33.73801 | -110.47359 | 31368 ft | 469 kts | 71° |
| 2026-05-07 02:27 | 33.74827 | -110.43631 | 31626 ft | 471 kts | 71° |
| 2026-05-07 02:27 | 33.75850 | -110.39890 | 31901 ft | 472 kts | 71° |
| 2026-05-07 02:28 | 33.76872 | -110.36139 | 32185 ft | 473 kts | 71° |
| 2026-05-07 02:28 | 33.77897 | -110.32376 | 32448 ft | 475 kts | 72° |
| 2026-05-07 02:28 | 33.78928 | -110.28598 | 32706 ft | 476 kts | 72° |
| 2026-05-07 02:28 | 33.79962 | -110.24811 | 32968 ft | 478 kts | 72° |
| 2026-05-07 02:29 | 33.80997 | -110.21009 | 33216 ft | 479 kts | 72° |
| 2026-05-07 02:29 | 33.82036 | -110.17196 | 33464 ft | 481 kts | 72° |
| 2026-05-07 02:29 | 33.83080 | -110.13362 | 33716 ft | 483 kts | 72° |
| 2026-05-07 02:29 | 33.84122 | -110.09524 | 33961 ft | 484 kts | 72° |
| 2026-05-07 02:30 | 33.85167 | -110.05664 | 34184 ft | 485 kts | 72° |
| 2026-05-07 02:30 | 33.86210 | -110.01799 | 34421 ft | 486 kts | 72° |
| 2026-05-07 02:30 | 33.87253 | -109.97929 | 34657 ft | 487 kts | 72° |
| 2026-05-07 02:30 | 33.88297 | -109.94050 | 34890 ft | 488 kts | 72° |
| 2026-05-07 02:31 | 33.90391 | -109.86271 | 35007 ft | 490 kts | 72° |
| 2026-05-07 02:31 | 33.92482 | -109.78462 | 35008 ft | 490 kts | 72° |
| 2026-05-07 02:32 | 33.94566 | -109.70633 | 35007 ft | 492 kts | 72° |
| 2026-05-07 02:32 | 33.96662 | -109.62787 | 35050 ft | 492 kts | 72° |
| 2026-05-07 02:33 | 33.98760 | -109.54921 | 35097 ft | 494 kts | 72° |
| 2026-05-07 02:33 | 34.00850 | -109.47032 | 35143 ft | 495 kts | 72° |
| 2026-05-07 02:34 | 34.02933 | -109.39124 | 35183 ft | 495 kts | 73° |
| 2026-05-07 02:34 | 34.05018 | -109.31209 | 35203 ft | 496 kts | 72° |
| 2026-05-07 02:35 | 34.07110 | -109.23282 | 35205 ft | 497 kts | 72° |
| 2026-05-07 02:35 | 34.09198 | -109.15331 | 35171 ft | 497 kts | 73° |
| 2026-05-07 02:36 | 34.11281 | -109.07368 | 35128 ft | 498 kts | 73° |
| 2026-05-07 02:36 | 34.13358 | -108.99390 | 35078 ft | 499 kts | 73° |
| 2026-05-07 02:37 | 34.15431 | -108.91391 | 35026 ft | 499 kts | 73° |
| 2026-05-07 02:37 | 34.17508 | -108.83380 | 35004 ft | 500 kts | 73° |
| 2026-05-07 02:38 | 34.19582 | -108.75360 | 35003 ft | 501 kts | 73° |
| 2026-05-07 02:38 | 34.21644 | -108.67321 | 35003 ft | 501 kts | 73° |
| 2026-05-07 02:39 | 34.23707 | -108.59274 | 35000 ft | 502 kts | 73° |
| 2026-05-07 02:39 | 34.25773 | -108.51203 | 35003 ft | 503 kts | 73° |
| 2026-05-07 02:40 | 34.27840 | -108.43116 | 34999 ft | 504 kts | 73° |
| 2026-05-07 02:40 | 34.29903 | -108.35008 | 34997 ft | 505 kts | 73° |
| 2026-05-07 02:41 | 34.31966 | -108.26884 | 34999 ft | 506 kts | 73° |
| 2026-05-07 02:41 | 34.34023 | -108.18735 | 35005 ft | 507 kts | 73° |
| 2026-05-07 02:42 | 34.35732 | -108.11948 | 35007 ft | 507 kts | 73° |
| 2026-05-07 02:42 | 34.37756 | -108.03763 | 35007 ft | 508 kts | 77° |
| 2026-05-07 02:43 | 34.38512 | -107.95311 | 35007 ft | 505 kts | 91° |
| 2026-05-07 02:43 | 34.38593 | -107.86733 | 34999 ft | 507 kts | 91° |
| 2026-05-07 02:44 | 34.38696 | -107.78251 | 34992 ft | 508 kts | 91° |
| 2026-05-07 02:44 | 34.38796 | -107.69689 | 34980 ft | 509 kts | 91° |
| 2026-05-07 02:45 | 34.38884 | -107.61046 | 34974 ft | 510 kts | 91° |
| 2026-05-07 02:45 | 34.38956 | -107.52499 | 34969 ft | 512 kts | 91° |
| 2026-05-07 02:46 | 34.39021 | -107.43868 | 34962 ft | 514 kts | 92° |
| 2026-05-07 02:46 | 34.39093 | -107.35146 | 34953 ft | 515 kts | 92° |
| 2026-05-07 02:47 | 34.39159 | -107.26456 | 34946 ft | 517 kts | 92° |
| 2026-05-07 02:47 | 34.39209 | -107.17730 | 34941 ft | 520 kts | 92° |
| 2026-05-07 02:48 | 34.39254 | -107.08960 | 34941 ft | 522 kts | 92° |
| 2026-05-07 02:48 | 34.39298 | -107.00158 | 34936 ft | 524 kts | 92° |
| 2026-05-07 02:49 | 34.39337 | -106.91315 | 34939 ft | 526 kts | 92° |
| 2026-05-07 02:49 | 34.39370 | -106.82439 | 34943 ft | 528 kts | 92° |
| 2026-05-07 02:50 | 34.39390 | -106.73531 | 34951 ft | 530 kts | 93° |
| 2026-05-07 02:50 | 34.39470 | -106.64591 | 34958 ft | 532 kts | 91° |
| 2026-05-07 02:51 | 34.39863 | -106.55621 | 34969 ft | 535 kts | 89° |
| 2026-05-07 02:51 | 34.40352 | -106.46634 | 34972 ft | 536 kts | 89° |
| 2026-05-07 02:52 | 34.40754 | -106.37614 | 34985 ft | 537 kts | 90° |
| 2026-05-07 02:52 | 34.41076 | -106.28564 | 34993 ft | 539 kts | 91° |
| 2026-05-07 02:53 | 34.41396 | -106.19480 | 34997 ft | 541 kts | 90° |
| 2026-05-07 02:53 | 34.41743 | -106.10368 | 35006 ft | 543 kts | 90° |
| 2026-05-07 02:54 | 34.42086 | -106.01224 | 35010 ft | 544 kts | 91° |
| 2026-05-07 02:54 | 34.42416 | -105.92052 | 35016 ft | 546 kts | 91° |
| 2026-05-07 02:55 | 34.42737 | -105.82857 | 35027 ft | 547 kts | 91° |
| 2026-05-07 02:55 | 34.43057 | -105.73645 | 35035 ft | 548 kts | 91° |
| 2026-05-07 02:56 | 34.43370 | -105.64411 | 35036 ft | 549 kts | 91° |
| 2026-05-07 02:56 | 34.43669 | -105.55161 | 35043 ft | 550 kts | 91° |
| 2026-05-07 02:57 | 34.43968 | -105.45883 | 35047 ft | 552 kts | 92° |
| 2026-05-07 02:57 | 34.44264 | -105.36582 | 35052 ft | 553 kts | 92° |
| 2026-05-07 02:58 | 34.44548 | -105.27253 | 35051 ft | 555 kts | 92° |
| 2026-05-07 02:58 | 34.44827 | -105.17896 | 35054 ft | 556 kts | 92° |
| 2026-05-07 02:59 | 34.45103 | -105.08523 | 35062 ft | 557 kts | 92° |
| 2026-05-07 02:59 | 34.45371 | -104.99131 | 35067 ft | 558 kts | 92° |
| 2026-05-07 03:00 | 34.45631 | -104.89729 | 35073 ft | 559 kts | 92° |
| 2026-05-07 03:00 | 34.45882 | -104.80305 | 35076 ft | 560 kts | 92° |
| 2026-05-07 03:01 | 34.46135 | -104.70863 | 35073 ft | 561 kts | 92° |
| 2026-05-07 03:01 | 34.46375 | -104.61412 | 35071 ft | 562 kts | 92° |
| 2026-05-07 03:02 | 34.46608 | -104.51939 | 35069 ft | 563 kts | 93° |
| 2026-05-07 03:02 | 34.46830 | -104.42450 | 35062 ft | 564 kts | 93° |
| 2026-05-07 03:03 | 34.47046 | -104.32951 | 35059 ft | 565 kts | 93° |
| 2026-05-07 03:03 | 34.47255 | -104.23433 | 35055 ft | 566 kts | 93° |
| 2026-05-07 03:04 | 34.47460 | -104.13899 | 35052 ft | 567 kts | 93° |
| 2026-05-07 03:04 | 34.47661 | -104.04342 | 35047 ft | 567 kts | 93° |
| 2026-05-07 03:05 | 34.47847 | -103.94783 | 35041 ft | 568 kts | 93° |
| 2026-05-07 03:05 | 34.48032 | -103.85208 | 35032 ft | 569 kts | 93° |
| 2026-05-07 03:06 | 34.48213 | -103.75622 | 35027 ft | 569 kts | 93° |
| 2026-05-07 03:06 | 34.48382 | -103.66024 | 35053 ft | 570 kts | 93° |
| 2026-05-07 03:07 | 34.48541 | -103.56409 | 35081 ft | 571 kts | 94° |
| 2026-05-07 03:07 | 34.48698 | -103.46779 | 35109 ft | 572 kts | 94° |
| 2026-05-07 03:08 | 34.48848 | -103.37132 | 35126 ft | 573 kts | 94° |
| 2026-05-07 03:08 | 34.48991 | -103.27457 | 35119 ft | 574 kts | 94° |
| 2026-05-07 03:09 | 34.49119 | -103.17770 | 35157 ft | 575 kts | 94° |
| 2026-05-07 03:09 | 34.49238 | -103.08061 | 35161 ft | 576 kts | 94° |
| 2026-05-07 03:10 | 34.49353 | -102.98341 | 35158 ft | 577 kts | 94° |
| 2026-05-07 03:10 | 34.49466 | -102.88599 | 35127 ft | 578 kts | 93° |
| 2026-05-07 03:11 | 34.49005 | -102.78885 | 35093 ft | 570 kts | 103° |
| 2026-05-07 03:11 | 34.48015 | -102.69342 | 35065 ft | 571 kts | 103° |
| 2026-05-07 03:12 | 34.47032 | -102.59798 | 35052 ft | 570 kts | 103° |
| 2026-05-07 03:12 | 34.46049 | -102.50267 | 35057 ft | 570 kts | 103° |
| 2026-05-07 03:13 | 34.45052 | -102.40749 | 35056 ft | 569 kts | 103° |
| 2026-05-07 03:13 | 34.44047 | -102.31258 | 35061 ft | 568 kts | 103° |
| 2026-05-07 03:14 | 34.43030 | -102.21780 | 35062 ft | 566 kts | 104° |
| 2026-05-07 03:15 | 34.41517 | -102.07665 | 35056 ft | 565 kts | 104° |
| 2026-05-07 03:15 | 34.40498 | -101.98251 | 35063 ft | 563 kts | 104° |
| 2026-05-07 03:16 | 34.39472 | -101.88855 | 35078 ft | 562 kts | 104° |
| 2026-05-07 03:16 | 34.38430 | -101.79486 | 35089 ft | 561 kts | 104° |
| 2026-05-07 03:17 | 34.37394 | -101.70130 | 35093 ft | 560 kts | 104° |
| 2026-05-07 03:17 | 34.36362 | -101.60791 | 35092 ft | 559 kts | 104° |
| 2026-05-07 03:18 | 34.35317 | -101.51474 | 35084 ft | 559 kts | 105° |
| 2026-05-07 03:18 | 34.34253 | -101.42174 | 35075 ft | 558 kts | 105° |
| 2026-05-07 03:19 | 34.33183 | -101.32859 | 35060 ft | 558 kts | 105° |
| 2026-05-07 03:19 | 34.32120 | -101.23562 | 35063 ft | 557 kts | 105° |
| 2026-05-07 03:20 | 34.31059 | -101.14283 | 35066 ft | 557 kts | 105° |
| 2026-05-07 03:20 | 34.29977 | -101.04998 | 35064 ft | 556 kts | 105° |
| 2026-05-07 03:21 | 34.29068 | -100.97298 | 35068 ft | 556 kts | 105° |
| 2026-05-07 03:21 | 34.27975 | -100.88048 | 35070 ft | 556 kts | 105° |
| 2026-05-07 03:22 | 34.26879 | -100.78797 | 35073 ft | 555 kts | 106° |
| 2026-05-07 03:22 | 34.25774 | -100.69565 | 35075 ft | 555 kts | 106° |
| 2026-05-07 03:23 | 34.24669 | -100.60316 | 35087 ft | 555 kts | 106° |
| 2026-05-07 03:23 | 34.23566 | -100.51095 | 35103 ft | 554 kts | 106° |
| 2026-05-07 03:24 | 34.22443 | -100.41874 | 35117 ft | 554 kts | 107° |
| 2026-05-07 03:24 | 34.21315 | -100.32725 | 35118 ft | 554 kts | 107° |
| 2026-05-07 03:25 | 34.19857 | -100.23664 | 35110 ft | 541 kts | 117° |
| 2026-05-07 03:25 | 34.17329 | -100.15135 | 35094 ft | 535 kts | 121° |
| 2026-05-07 03:26 | 34.14789 | -100.06754 | 35075 ft | 535 kts | 121° |
| 2026-05-07 03:26 | 34.12234 | -99.98308 | 35073 ft | 535 kts | 121° |
| 2026-05-07 03:27 | 34.09679 | -99.89875 | 35081 ft | 535 kts | 121° |
| 2026-05-07 03:27 | 34.07110 | -99.81442 | 35071 ft | 535 kts | 121° |
| 2026-05-07 03:28 | 34.04533 | -99.73015 | 35071 ft | 536 kts | 121° |
| 2026-05-07 03:28 | 34.01951 | -99.64589 | 35067 ft | 536 kts | 121° |
| 2026-05-07 03:29 | 33.99361 | -99.56163 | 35070 ft | 536 kts | 121° |
| 2026-05-07 03:29 | 33.96763 | -99.47727 | 35067 ft | 536 kts | 121° |
| 2026-05-07 03:30 | 33.94161 | -99.39299 | 35067 ft | 536 kts | 121° |
| 2026-05-07 03:30 | 33.91537 | -99.30890 | 35072 ft | 537 kts | 122° |
| 2026-05-07 03:31 | 33.88979 | -99.22723 | 35071 ft | 537 kts | 122° |
| 2026-05-07 03:31 | 33.86363 | -99.14363 | 35063 ft | 537 kts | 122° |
| 2026-05-07 03:32 | 33.83724 | -99.05947 | 35065 ft | 537 kts | 122° |
| 2026-05-07 03:32 | 33.81073 | -98.97532 | 35067 ft | 538 kts | 122° |
| 2026-05-07 03:33 | 33.78419 | -98.89120 | 35074 ft | 538 kts | 122° |
| 2026-05-07 03:33 | 33.75749 | -98.80710 | 35094 ft | 538 kts | 122° |
| 2026-05-07 03:34 | 33.73080 | -98.72307 | 35105 ft | 539 kts | 122° |
| 2026-05-07 03:34 | 33.70414 | -98.63880 | 35072 ft | 540 kts | 122° |
| 2026-05-07 03:34 | 33.69081 | -98.59672 | 34801 ft | 539 kts | 122° |
| 2026-05-07 03:35 | 33.67734 | -98.55442 | 33758 ft | 548 kts | 122° |
| 2026-05-07 03:35 | 33.66357 | -98.51143 | 32770 ft | 554 kts | 121° |
| 2026-05-07 03:35 | 33.64976 | -98.46813 | 31728 ft | 554 kts | 120° |
| 2026-05-07 03:35 | 33.63622 | -98.42521 | 30585 ft | 545 kts | 120° |
| 2026-05-07 03:36 | 33.62275 | -98.38264 | 29382 ft | 550 kts | 120° |
| 2026-05-07 03:36 | 33.60892 | -98.33949 | 28178 ft | 557 kts | 119° |
| 2026-05-07 03:36 | 33.59500 | -98.29619 | 26950 ft | 552 kts | 118° |
| 2026-05-07 03:36 | 33.58142 | -98.25368 | 25895 ft | 536 kts | 118° |
| 2026-05-07 03:37 | 33.56850 | -98.21290 | 25432 ft | 515 kts | 118° |
| 2026-05-07 03:37 | 33.55585 | -98.17329 | 25184 ft | 503 kts | 119° |
| 2026-05-07 03:37 | 33.54336 | -98.13453 | 24947 ft | 495 kts | 119° |
| 2026-05-07 03:37 | 33.53088 | -98.09616 | 24634 ft | 492 kts | 119° |
| 2026-05-07 03:38 | 33.51843 | -98.05802 | 24057 ft | 491 kts | 118° |
| 2026-05-07 03:38 | 33.50606 | -98.02006 | 23598 ft | 486 kts | 118° |
| 2026-05-07 03:38 | 33.49382 | -97.98232 | 22975 ft | 484 kts | 118° |
| 2026-05-07 03:38 | 33.48178 | -97.94502 | 22527 ft | 478 kts | 118° |
| 2026-05-07 03:39 | 33.46985 | -97.90804 | 22002 ft | 473 kts | 117° |
| 2026-05-07 03:39 | 33.45820 | -97.87172 | 21113 ft | 463 kts | 117° |
| 2026-05-07 03:39 | 33.44681 | -97.83619 | 20647 ft | 457 kts | 117° |
| 2026-05-07 03:39 | 33.43529 | -97.80056 | 20089 ft | 459 kts | 117° |
| 2026-05-07 03:40 | 33.42384 | -97.76514 | 19662 ft | 454 kts | 117° |
| 2026-05-07 03:40 | 33.41256 | -97.73024 | 18985 ft | 446 kts | 116° |
| 2026-05-07 03:40 | 33.40151 | -97.69599 | 18757 ft | 436 kts | 116° |
| 2026-05-07 03:40 | 33.39010 | -97.66293 | 18079 ft | 422 kts | 123° |
| 2026-05-07 03:41 | 33.37493 | -97.63398 | 17439 ft | 401 kts | 135° |
| 2026-05-07 03:41 | 33.35649 | -97.60932 | 16916 ft | 394 kts | 143° |
| 2026-05-07 03:41 | 33.33699 | -97.58649 | 16429 ft | 392 kts | 143° |
| 2026-05-07 03:41 | 33.31777 | -97.56389 | 15911 ft | 380 kts | 142° |
| 2026-05-07 03:42 | 33.29901 | -97.54183 | 15441 ft | 376 kts | 142° |
| 2026-05-07 03:42 | 33.28053 | -97.52013 | 15063 ft | 370 kts | 142° |
| 2026-05-07 03:42 | 33.26225 | -97.49867 | 14625 ft | 368 kts | 142° |
| 2026-05-07 03:42 | 33.24404 | -97.47731 | 14228 ft | 365 kts | 142° |
| 2026-05-07 03:43 | 33.22600 | -97.45619 | 13717 ft | 364 kts | 142° |
| 2026-05-07 03:43 | 33.20801 | -97.43515 | 13308 ft | 359 kts | 142° |
| 2026-05-07 03:43 | 33.19013 | -97.41424 | 12852 ft | 357 kts | 141° |
| 2026-05-07 03:43 | 33.17267 | -97.39375 | 12276 ft | 350 kts | 141° |
| 2026-05-07 03:44 | 33.15542 | -97.37357 | 12013 ft | 342 kts | 141° |
| 2026-05-07 03:44 | 33.13877 | -97.35405 | 11977 ft | 327 kts | 141° |
| 2026-05-07 03:44 | 33.12293 | -97.33542 | 11972 ft | 314 kts | 142° |
| 2026-05-07 03:44 | 33.10738 | -97.31720 | 11978 ft | 312 kts | 142° |
| 2026-05-07 03:45 | 33.09183 | -97.29912 | 11978 ft | 312 kts | 142° |
| 2026-05-07 03:45 | 33.07628 | -97.28111 | 11981 ft | 312 kts | 142° |
| 2026-05-07 03:45 | 33.06072 | -97.26309 | 11979 ft | 312 kts | 142° |
| 2026-05-07 03:45 | 33.04520 | -97.24506 | 11979 ft | 312 kts | 142° |
| 2026-05-07 03:46 | 33.02969 | -97.22701 | 11994 ft | 312 kts | 142° |
| 2026-05-07 03:46 | 33.01436 | -97.20918 | 12003 ft | 312 kts | 142° |
| 2026-05-07 03:46 | 32.99915 | -97.19143 | 12000 ft | 299 kts | 144° |
| 2026-05-07 03:46 | 32.98287 | -97.17748 | 11997 ft | 273 kts | 162° |
| 2026-05-07 03:47 | 32.96531 | -97.17028 | 11810 ft | 263 kts | 179° |
| 2026-05-07 03:47 | 32.94773 | -97.16870 | 11525 ft | 254 kts | 186° |
| 2026-05-07 03:47 | 32.92988 | -97.16786 | 11267 ft | 252 kts | 186° |
| 2026-05-07 03:47 | 32.91241 | -97.16696 | 11019 ft | 251 kts | 186° |
| 2026-05-07 03:48 | 32.89487 | -97.16604 | 10768 ft | 254 kts | 185° |
| 2026-05-07 03:48 | 32.87722 | -97.16507 | 10518 ft | 254 kts | 185° |
| 2026-05-07 03:48 | 32.85984 | -97.16410 | 10268 ft | 253 kts | 185° |
| 2026-05-07 03:48 | 32.84204 | -97.16313 | 10022 ft | 253 kts | 185° |
| 2026-05-07 03:49 | 32.82471 | -97.16218 | 9752 ft | 252 kts | 185° |
| 2026-05-07 03:49 | 32.80718 | -97.16121 | 9495 ft | 252 kts | 184° |
| 2026-05-07 03:49 | 32.78966 | -97.16043 | 9280 ft | 251 kts | 186° |
| 2026-05-07 03:49 | 32.77222 | -97.16028 | 9078 ft | 250 kts | 187° |
| 2026-05-07 03:50 | 32.75479 | -97.16036 | 8991 ft | 251 kts | 187° |
| 2026-05-07 03:50 | 32.73718 | -97.16051 | 8711 ft | 258 kts | 186° |
| 2026-05-07 03:50 | 32.71905 | -97.16066 | 8302 ft | 261 kts | 186° |
| 2026-05-07 03:50 | 32.70092 | -97.16073 | 8014 ft | 260 kts | 185° |
| 2026-05-07 03:51 | 32.68292 | -97.16079 | 7752 ft | 257 kts | 185° |
| 2026-05-07 03:51 | 32.66514 | -97.16083 | 7502 ft | 253 kts | 185° |
| 2026-05-07 03:51 | 32.64762 | -97.16082 | 7258 ft | 251 kts | 184° |
| 2026-05-07 03:51 | 32.63023 | -97.16081 | 7010 ft | 250 kts | 184° |
| 2026-05-07 03:52 | 32.61285 | -97.16083 | 6767 ft | 249 kts | 184° |
| 2026-05-07 03:52 | 32.59553 | -97.16086 | 6520 ft | 248 kts | 184° |
| 2026-05-07 03:52 | 32.57856 | -97.16066 | 6342 ft | 241 kts | 182° |
| 2026-05-07 03:52 | 32.56187 | -97.16017 | 6272 ft | 240 kts | 182° |
| 2026-05-07 03:53 | 32.54521 | -97.15962 | 6230 ft | 239 kts | 182° |
| 2026-05-07 03:53 | 32.52859 | -97.15907 | 6159 ft | 239 kts | 181° |
| 2026-05-07 03:53 | 32.51199 | -97.15854 | 6048 ft | 239 kts | 182° |
| 2026-05-07 03:53 | 32.49541 | -97.15804 | 6002 ft | 238 kts | 182° |
| 2026-05-07 03:54 | 32.47892 | -97.15596 | 5998 ft | 242 kts | 164° |
| 2026-05-07 03:54 | 32.46492 | -97.14501 | 6002 ft | 246 kts | 131° |
| 2026-05-07 03:54 | 32.45731 | -97.12702 | 5998 ft | 247 kts | 105° |
| 2026-05-07 03:54 | 32.45345 | -97.10723 | 6002 ft | 247 kts | 101° |
| 2026-05-07 03:55 | 32.45073 | -97.08717 | 6005 ft | 247 kts | 94° |
| 2026-05-07 03:55 | 32.45172 | -97.06705 | 5949 ft | 246 kts | 73° |
| 2026-05-07 03:55 | 32.45952 | -97.04969 | 5793 ft | 236 kts | 45° |
| 2026-05-07 03:55 | 32.47253 | -97.03842 | 5743 ft | 231 kts | 20° |
| 2026-05-07 03:56 | 32.48800 | -97.03471 | 5694 ft | 226 kts | 356° |
| 2026-05-07 03:56 | 32.50345 | -97.03737 | 5649 ft | 224 kts | 347° |
| 2026-05-07 03:56 | 32.51880 | -97.04064 | 5598 ft | 224 kts | 347° |
| 2026-05-07 03:56 | 32.53411 | -97.04387 | 5546 ft | 223 kts | 348° |
| 2026-05-07 03:57 | 32.54941 | -97.04710 | 5485 ft | 223 kts | 348° |
| 2026-05-07 03:57 | 32.56472 | -97.05032 | 5432 ft | 223 kts | 348° |
| 2026-05-07 03:57 | 32.57997 | -97.05353 | 5389 ft | 222 kts | 348° |
| 2026-05-07 03:57 | 32.59526 | -97.05625 | 5338 ft | 222 kts | 355° |
| 2026-05-07 03:58 | 32.61073 | -97.05626 | 5301 ft | 222 kts | 358° |
| 2026-05-07 03:58 | 32.62617 | -97.05615 | 5251 ft | 221 kts | 359° |
| 2026-05-07 03:58 | 32.64136 | -97.05607 | 5105 ft | 213 kts | 359° |
| 2026-05-07 03:58 | 32.65565 | -97.05598 | 4905 ft | 197 kts | 359° |
| 2026-05-07 03:59 | 32.66891 | -97.05591 | 4709 ft | 184 kts | 359° |
| 2026-05-07 03:59 | 32.68131 | -97.05584 | 4499 ft | 171 kts | 360° |
| 2026-05-07 03:59 | 32.69272 | -97.05578 | 4267 ft | 158 kts | 360° |
| 2026-05-07 03:59 | 32.70351 | -97.05573 | 4056 ft | 153 kts | 1° |
| 2026-05-07 04:00 | 32.71405 | -97.05568 | 3865 ft | 150 kts | 1° |
| 2026-05-07 04:00 | 32.72441 | -97.05563 | 3678 ft | 146 kts | 1° |
| 2026-05-07 04:00 | 32.73435 | -97.05558 | 3477 ft | 141 kts | 2° |
| 2026-05-07 04:00 | 32.74408 | -97.05553 | 3283 ft | 138 kts | 2° |
| 2026-05-07 04:01 | 32.75369 | -97.05548 | 3100 ft | 138 kts | 3° |
| 2026-05-07 04:01 | 32.76328 | -97.05543 | 2922 ft | 137 kts | 4° |
| 2026-05-07 04:01 | 32.77286 | -97.05538 | 2737 ft | 137 kts | 4° |
| 2026-05-07 04:01 | 32.78236 | -97.05533 | 2554 ft | 136 kts | 4° |
| 2026-05-07 04:02 | 32.79182 | -97.05528 | 2369 ft | 136 kts | 4° |
| 2026-05-07 04:02 | 32.80125 | -97.05523 | 2155 ft | 136 kts | 5° |
| 2026-05-07 04:02 | 32.80766 | -97.05520 | 2026 ft | 135 kts | 4° |
| 2026-05-07 04:02 | 32.81693 | -97.05515 | 1849 ft | 135 kts | 4° |
| 2026-05-07 04:03 | 32.82643 | -97.05510 | 1668 ft | 135 kts | 3° |
| 2026-05-07 04:03 | 32.83590 | -97.05505 | 1479 ft | 137 kts | 2° |
| 2026-05-07 04:03 | 32.84538 | -97.05500 | 1300 ft | 136 kts | 1° |
| 2026-05-07 04:03 | 32.85489 | -97.05496 | 1108 ft | 136 kts | 2° |
| 2026-05-07 04:04 | 32.86438 | -97.05491 | 932 ft | 137 kts | 3° |
| 2026-05-07 04:04 | 32.87376 | -97.05488 | 791 ft | 136 kts | 2° |
| 2026-05-07 04:04 | 32.88336 | -97.05486 | 630 ft | 135 kts | 1° |
| 2026-05-07 04:04 | 32.89197 | -97.05473 | 597 ft | 105 kts | 1° |
| 2026-05-07 04:05 | 32.89731 | -97.05470 | 612 ft | 29 kts | 0° |
| 2026-05-07 04:05 | 32.89869 | -97.05439 | 611 ft | 22 kts | 24° |
| 2026-05-07 04:05 | 32.90020 | -97.05350 | 613 ft | 27 kts | 31° |
| 2026-05-07 04:05 | 32.90108 | -97.05281 | 602 ft | 10 kts | 48° |
| 2026-05-07 04:06 | 32.90117 | -97.05209 | 600 ft | 0 kts | 91° |
| 2026-05-07 04:06 | 32.90117 | -97.05208 | 600 ft | 1 kts | 91° |
| 2026-05-07 04:06 | 32.90116 | -97.05178 | 600 ft | 6 kts | 90° |
| 2026-05-07 04:07 | 32.90116 | -97.05103 | 599 ft | 11 kts | 90° |
| 2026-05-07 04:07 | 32.90116 | -97.04996 | 599 ft | 14 kts | 90° |
| 2026-05-07 04:07 | 32.90116 | -97.04875 | 600 ft | 15 kts | 90° |
| 2026-05-07 04:07 | 32.90115 | -97.04770 | 600 ft | 11 kts | 93° |
| 2026-05-07 04:08 | 32.90085 | -97.04679 | 600 ft | 13 kts | 107° |
| 2026-05-07 04:08 | 32.90043 | -97.04605 | 598 ft | 9 kts | 125° |
| 2026-05-07 04:08 | 32.90007 | -97.04576 | 598 ft | 0 kts | 149° |
| 2026-05-07 04:08 | 32.90005 | -97.04574 | 598 ft | 0 kts | 147° |